Time;durP1;ratioP1;P1;durP2;ratioP2;P2;SDS_P1;SDS_P2;PMS_P1;PMS_P2;Temp;Humidity;BMP_temperature;BMP_pressure;BME280_temperature;BME280_humidity;BME280_pressure;Samples;Min_cycle;Max_cycle;Signal;HPM_P1;HPM_P2
2023/12/12 00:00:29;;;;;;;10.93;2.83;;;6.60;99.90;;;;;;6333057;22;20455;-74
2023/12/12 00:03:02;;;;;;;8.07;4.00;;;6.50;99.90;;;;;;6333007;22;20050;-74
2023/12/12 00:05:27;;;;;;;4.90;2.97;;;6.50;99.90;;;;;;6333118;22;20090;-74
2023/12/12 00:07:53;;;;;;;4.95;3.40;;;6.40;99.90;;;;;;6334819;22;20390;-75
2023/12/12 00:10:18;;;;;;;6.63;2.72;;;6.40;99.90;;;;;;6332631;22;20014;-75
2023/12/12 00:12:44;;;;;;;8.65;2.90;;;6.40;99.90;;;;;;6334645;22;20155;-75
2023/12/12 00:15:10;;;;;;;5.38;3.33;;;6.30;99.90;;;;;;6332997;22;20630;-75
2023/12/12 00:17:38;;;;;;;8.65;2.70;;;6.30;99.90;;;;;;6333070;22;20053;-75
2023/12/12 00:20:07;;;;;;;5.40;2.83;;;6.20;99.90;;;;;;6335001;22;20011;-75
2023/12/12 00:22:33;;;;;;;5.45;2.72;;;6.20;99.90;;;;;;6333053;22;20456;-75
2023/12/12 00:24:58;;;;;;;5.70;2.30;;;6.20;99.90;;;;;;6332973;22;20015;-75
2023/12/12 00:27:24;;;;;;;10.23;2.95;;;6.10;99.90;;;;;;6333241;22;20026;-75
2023/12/12 00:29:50;;;;;;;6.40;2.95;;;6.10;99.90;;;;;;6333361;22;20025;-75
2023/12/12 00:32:15;;;;;;;5.43;2.67;;;6.10;99.90;;;;;;6335294;22;20019;-75
2023/12/12 00:34:41;;;;;;;6.20;3.00;;;6.10;99.90;;;;;;6333138;22;20101;-74
2023/12/12 00:37:07;;;;;;;7.30;3.50;;;6.00;99.90;;;;;;6333310;22;20406;-75
2023/12/12 00:39:41;;;;;;;9.40;4.05;;;6.00;99.90;;;;;;6306816;22;20414;-75
2023/12/12 00:42:07;;;;;;;9.98;3.80;;;6.10;99.90;;;;;;6332667;22;20049;-75
2023/12/12 00:44:36;;;;;;;12.63;2.85;;;6.00;99.90;;;;;;6334613;22;20018;-75
2023/12/12 00:47:02;;;;;;;8.77;3.10;;;6.00;99.90;;;;;;6332426;22;20027;-75
2023/12/12 00:49:28;;;;;;;5.65;3.33;;;6.00;99.90;;;;;;6334526;22;20023;-74
2023/12/12 00:51:53;;;;;;;4.95;3.08;;;5.90;99.90;;;;;;6332682;22;20050;-75
2023/12/12 00:54:19;;;;;;;9.10;3.13;;;5.80;99.90;;;;;;6333970;22;20022;-75
2023/12/12 01:04:34;;;;;;;5.05;3.38;;;5.80;99.90;;;;;;6294650;22;20461;-75
2023/12/12 01:07:01;;;;;;;7.97;3.75;;;5.70;99.90;;;;;;6274717;22;20023;-78
2023/12/12 01:09:27;;;;;;;9.50;3.30;;;5.80;99.90;;;;;;6301155;22;20346;-78
2023/12/12 01:11:52;;;;;;;10.70;3.28;;;5.80;99.90;;;;;;6301157;22;20019;-77
2023/12/12 01:14:18;;;;;;;8.48;3.80;;;5.70;99.90;;;;;;6300971;22;20027;-78
2023/12/12 01:16:44;;;;;;;7.80;3.33;;;5.70;99.90;;;;;;6301326;22;20019;-78
2023/12/12 01:19:09;;;;;;;9.88;4.05;;;5.70;99.90;;;;;;6302804;22;20015;-78
2023/12/12 01:21:35;;;;;;;6.00;3.30;;;5.60;99.90;;;;;;6303419;22;20015;-78
2023/12/12 01:24:01;;;;;;;6.25;3.72;;;5.50;99.90;;;;;;6301354;22;20022;-78
2023/12/12 01:26:26;;;;;;;8.40;3.47;;;5.60;99.90;;;;;;6301411;22;20046;-78
2023/12/12 01:28:52;;;;;;;4.53;3.03;;;5.50;99.90;;;;;;6301285;22;20019;-78
2023/12/12 01:31:18;;;;;;;10.80;3.90;;;5.50;99.90;;;;;;6301402;22;20145;-78
2023/12/12 01:33:45;;;;;;;9.05;3.35;;;5.40;99.90;;;;;;6301011;22;20019;-78
2023/12/12 01:36:11;;;;;;;6.63;3.47;;;5.40;99.90;;;;;;6301669;22;20026;-78
2023/12/12 01:38:37;;;;;;;7.45;3.70;;;5.40;99.90;;;;;;6301651;22;20427;-78
2023/12/12 01:41:03;;;;;;;8.30;3.72;;;5.40;99.90;;;;;;6301706;22;20023;-77
2023/12/12 01:43:31;;;;;;;8.23;3.60;;;5.30;99.90;;;;;;6301590;22;20612;-78
2023/12/12 01:46:12;;;;;;;8.18;4.10;;;5.30;99.90;;;;;;6301735;22;20019;-78
2023/12/12 01:48:38;;;;;;;10.57;3.72;;;5.20;99.90;;;;;;6301240;22;20029;-78
2023/12/12 01:51:05;;;;;;;8.40;5.47;;;5.20;99.90;;;;;;6301459;22;20019;-78
2023/12/12 01:53:37;;;;;;;9.20;4.10;;;5.30;99.90;;;;;;6301188;22;20109;-78
2023/12/12 01:56:04;;;;;;;9.90;4.50;;;5.30;99.90;;;;;;6301346;22;20129;-78
2023/12/12 01:58:30;;;;;;;13.60;4.00;;;5.20;99.90;;;;;;6303064;22;20019;-78
2023/12/12 02:00:56;;;;;;;8.23;4.20;;;5.20;99.90;;;;;;6301262;22;20011;-78
2023/12/12 02:03:24;;;;;;;9.57;4.60;;;5.20;99.90;;;;;;6302688;22;20469;-78
2023/12/12 02:05:50;;;;;;;9.80;3.92;;;5.10;99.90;;;;;;6302919;22;20023;-78
2023/12/12 02:08:16;;;;;;;8.32;4.25;;;5.10;99.90;;;;;;6302521;22;20011;-78
2023/12/12 02:10:42;;;;;;;6.75;4.43;;;5.20;99.90;;;;;;6303239;22;20376;-77
2023/12/12 02:13:10;;;;;;;9.13;4.25;;;5.20;99.90;;;;;;6301050;22;20047;-78
2023/12/12 02:15:35;;;;;;;10.30;5.45;;;5.20;99.90;;;;;;6302930;22;20080;-78
2023/12/12 02:18:01;;;;;;;7.97;4.55;;;5.10;99.90;;;;;;6303013;22;20007;-78
2023/12/12 02:20:27;;;;;;;8.60;4.97;;;5.20;99.90;;;;;;6300976;22;20102;-78
2023/12/12 02:22:52;;;;;;;12.15;4.53;;;5.20;99.90;;;;;;6302888;22;20023;-78
2023/12/12 02:25:18;;;;;;;12.90;4.57;;;5.20;99.90;;;;;;6302547;22;20443;-78
2023/12/12 02:27:46;;;;;;;13.57;5.55;;;5.20;99.90;;;;;;6303084;22;20103;-78
2023/12/12 02:30:14;;;;;;;8.98;5.15;;;5.20;99.90;;;;;;6300705;22;20015;-78
2023/12/12 02:32:40;;;;;;;10.85;5.18;;;5.20;99.90;;;;;;6302730;22;20415;-78
2023/12/12 02:35:06;;;;;;;12.30;5.40;;;5.20;99.90;;;;;;6302482;22;20069;-78
2023/12/12 02:37:31;;;;;;;11.40;5.15;;;5.20;99.90;;;;;;6300789;22;20015;-78
2023/12/12 02:39:57;;;;;;;9.00;5.30;;;5.20;99.90;;;;;;6300911;22;20011;-78
2023/12/12 02:42:22;;;;;;;8.40;4.68;;;5.20;99.90;;;;;;6300734;22;20025;-78
2023/12/12 02:44:48;;;;;;;10.23;5.03;;;5.20;99.90;;;;;;6302307;22;20019;-78
2023/12/12 02:47:14;;;;;;;10.73;5.38;;;5.20;99.90;;;;;;6302512;22;20023;-78
2023/12/12 02:49:39;;;;;;;13.05;5.45;;;5.10;99.90;;;;;;6300735;22;20030;-78
2023/12/12 02:52:05;;;;;;;15.27;5.68;;;5.10;99.90;;;;;;6302557;22;20478;-79
2023/12/12 02:54:31;;;;;;;11.73;5.40;;;5.10;99.90;;;;;;6300617;22;20030;-78
2023/12/12 02:56:56;;;;;;;8.70;4.68;;;5.00;99.90;;;;;;6300956;22;20094;-78
2023/12/12 02:59:22;;;;;;;12.32;5.43;;;5.00;99.90;;;;;;6300602;22;20015;-79
2023/12/12 03:01:48;;;;;;;11.85;6.00;;;5.00;99.90;;;;;;6300877;22;20023;-78
2023/12/12 03:04:14;;;;;;;12.55;5.47;;;5.00;99.90;;;;;;6300752;22;20098;-78
2023/12/12 03:06:40;;;;;;;9.60;5.35;;;5.00;99.90;;;;;;6302581;22;20016;-78
2023/12/12 03:09:06;;;;;;;10.60;5.50;;;5.10;99.90;;;;;;6303074;22;20310;-78
2023/12/12 03:11:34;;;;;;;10.35;4.82;;;5.00;99.90;;;;;;6302847;22;20014;-78
2023/12/12 03:14:00;;;;;;;12.18;5.50;;;5.00;99.90;;;;;;6302341;22;20475;-78
2023/12/12 03:16:26;;;;;;;10.20;5.38;;;5.00;99.90;;;;;;6303836;22;20015;-78
2023/12/12 03:18:52;;;;;;;12.40;6.00;;;4.90;99.90;;;;;;6304906;22;20484;-78
2023/12/12 03:21:18;;;;;;;11.15;5.20;;;4.90;99.90;;;;;;6302821;22;20080;-78
2023/12/12 03:23:46;;;;;;;10.07;5.00;;;4.80;99.90;;;;;;6302509;22;20031;-78
2023/12/12 03:26:12;;;;;;;7.28;5.25;;;4.80;99.90;;;;;;6302401;22;20367;-78
2023/12/12 03:28:38;;;;;;;9.43;5.15;;;4.70;99.90;;;;;;6302286;22;20072;-78
2023/12/12 03:31:04;;;;;;;11.20;4.72;;;4.60;99.90;;;;;;6302501;22;20027;-78
2023/12/12 03:33:29;;;;;;;12.05;4.53;;;4.70;99.90;;;;;;6302403;22;20103;-77
2023/12/12 03:35:55;;;;;;;10.80;5.13;;;4.70;99.90;;;;;;6302588;22;20086;-78
2023/12/12 03:38:21;;;;;;;8.40;4.90;;;4.60;99.90;;;;;;6276733;22;20026;-78
2023/12/12 03:40:47;;;;;;;10.50;5.63;;;4.60;99.90;;;;;;6302617;22;20099;-78
2023/12/12 03:43:13;;;;;;;12.63;5.25;;;4.60;99.90;;;;;;6302099;22;20354;-78
2023/12/12 03:45:39;;;;;;;12.38;4.88;;;4.60;99.90;;;;;;6302497;22;20120;-78
2023/12/12 03:48:04;;;;;;;11.27;5.72;;;4.70;99.90;;;;;;6304427;22;20039;-78
2023/12/12 03:50:30;;;;;;;11.38;5.60;;;4.70;99.90;;;;;;6304540;22;20022;-78
2023/12/12 03:52:56;;;;;;;10.43;5.72;;;4.70;99.90;;;;;;6304428;22;20156;-78
2023/12/12 03:55:21;;;;;;;10.13;5.32;;;4.70;99.90;;;;;;6302247;22;20026;-78
2023/12/12 03:57:47;;;;;;;14.73;7.47;;;4.70;99.90;;;;;;6303860;22;20016;-78
2023/12/12 04:00:13;;;;;;;11.70;5.50;;;4.70;99.90;;;;;;6302415;22;20342;-78
2023/12/12 04:02:40;;;;;;;10.40;5.55;;;4.60;99.90;;;;;;6302284;22;20101;-77
2023/12/12 04:05:09;;;;;;;10.82;5.32;;;4.60;99.90;;;;;;6303836;22;20509;-78
2023/12/12 04:07:37;;;;;;;15.68;5.55;;;4.60;99.90;;;;;;6302457;22;20069;-78
2023/12/12 04:10:05;;;;;;;12.85;5.70;;;4.60;99.90;;;;;;6303957;22;20015;-78
2023/12/12 04:12:30;;;;;;;8.85;5.18;;;4.60;99.90;;;;;;6301907;22;20068;-78
2023/12/12 04:14:56;;;;;;;11.10;5.65;;;4.70;99.90;;;;;;6302115;22;20095;-79
2023/12/12 04:17:22;;;;;;;13.70;6.03;;;4.70;99.90;;;;;;6303737;22;20023;-78
2023/12/12 04:19:47;;;;;;;8.73;5.32;;;4.70;99.90;;;;;;6304069;22;20298;-78
2023/12/12 04:22:13;;;;;;;8.70;4.97;;;4.70;99.90;;;;;;6301990;22;20020;-79
2023/12/12 04:24:39;;;;;;;11.65;6.32;;;4.80;99.90;;;;;;6304002;22;20023;-79
2023/12/12 04:27:04;;;;;;;13.52;6.22;;;4.80;99.90;;;;;;6301552;22;20087;-79
2023/12/12 04:29:30;;;;;;;12.00;5.90;;;4.80;99.90;;;;;;6301963;22;20030;-78
2023/12/12 04:31:56;;;;;;;16.33;6.13;;;4.90;99.90;;;;;;6302641;22;20019;-79
2023/12/12 04:34:22;;;;;;;15.80;6.20;;;4.90;99.90;;;;;;6303909;22;20042;-79
2023/12/12 04:36:48;;;;;;;14.05;6.55;;;5.00;99.90;;;;;;6303620;22;20015;-79
2023/12/12 04:39:20;;;;;;;10.07;5.47;;;5.00;99.90;;;;;;6301870;22;20019;-78
2023/12/12 04:41:46;;;;;;;14.55;6.50;;;5.00;99.90;;;;;;6301895;22;20321;-78
2023/12/12 04:44:12;;;;;;;14.70;6.90;;;5.00;99.90;;;;;;6303891;22;20053;-78
2023/12/12 04:46:37;;;;;;;12.93;7.30;;;4.90;99.90;;;;;;6301808;22;20057;-77
2023/12/12 04:49:03;;;;;;;10.38;6.32;;;5.00;99.90;;;;;;6301847;22;20494;-77
2023/12/12 04:51:29;;;;;;;15.00;7.05;;;5.10;99.90;;;;;;6303524;22;20080;-77
2023/12/12 04:53:55;;;;;;;11.13;6.10;;;5.10;99.90;;;;;;6301713;22;20507;-77
2023/12/12 04:56:21;;;;;;;12.88;6.88;;;5.10;99.90;;;;;;6303261;22;20008;-77
2023/12/12 04:58:46;;;;;;;12.63;7.60;;;5.10;99.90;;;;;;6301832;22;20457;-77
2023/12/12 05:01:16;;;;;;;11.15;6.82;;;5.10;99.90;;;;;;6303756;22;20284;-76
2023/12/12 05:03:42;;;;;;;10.55;6.07;;;5.20;99.90;;;;;;6303400;22;20011;-76
2023/12/12 05:06:09;;;;;;;11.52;6.13;;;5.20;99.90;;;;;;6301568;22;20057;-77
2023/12/12 05:08:35;;;;;;;13.68;6.25;;;5.10;99.90;;;;;;6301680;22;20414;-77
2023/12/12 05:11:00;;;;;;;9.55;6.20;;;5.20;99.90;;;;;;6303263;22;20015;-77
2023/12/12 05:13:26;;;;;;;9.98;6.35;;;5.10;99.90;;;;;;6303291;22;20018;-77
2023/12/12 05:15:52;;;;;;;11.75;6.20;;;5.20;99.90;;;;;;6303249;22;20443;-77
2023/12/12 05:18:18;;;;;;;9.23;6.20;;;5.20;99.90;;;;;;6301646;22;20027;-77
2023/12/12 05:20:44;;;;;;;9.73;6.40;;;5.20;99.90;;;;;;6303630;22;20047;-76
2023/12/12 05:23:11;;;;;;;11.60;6.70;;;5.20;99.90;;;;;;6301564;22;20447;-77
2023/12/12 05:25:36;;;;;;;10.88;6.38;;;5.20;99.90;;;;;;6303468;22;20159;-76
2023/12/12 05:28:02;;;;;;;9.25;6.03;;;5.20;99.90;;;;;;6303419;22;20474;-77
2023/12/12 05:30:28;;;;;;;9.50;6.15;;;5.30;99.90;;;;;;6301396;22;20029;-76
2023/12/12 05:32:53;;;;;;;10.35;6.25;;;5.30;99.90;;;;;;6301566;22;20019;-77
2023/12/12 05:35:19;;;;;;;10.20;6.50;;;5.30;99.90;;;;;;6301230;22;20493;-76
2023/12/12 05:37:45;;;;;;;11.93;6.75;;;5.30;99.90;;;;;;6301620;22;20110;-76
2023/12/12 05:40:14;;;;;;;11.25;6.50;;;5.30;99.90;;;;;;6301152;22;20434;-76
2023/12/12 05:42:40;;;;;;;12.40;6.80;;;5.40;99.90;;;;;;6301635;22;20342;-76
2023/12/12 05:45:07;;;;;;;11.30;6.95;;;5.40;99.90;;;;;;6301758;22;20102;-76
2023/12/12 05:47:33;;;;;;;10.45;7.10;;;5.40;99.90;;;;;;6303786;22;20019;-76
2023/12/12 05:49:58;;;;;;;15.27;7.05;;;5.50;99.90;;;;;;6303454;22;20351;-76
2023/12/12 05:52:25;;;;;;;18.58;8.10;;;5.60;99.90;;;;;;6301604;22;20015;-76
2023/12/12 05:54:51;;;;;;;15.43;8.75;;;5.60;99.90;;;;;;6301066;22;20023;-76
2023/12/12 05:57:17;;;;;;;18.48;8.65;;;5.60;99.90;;;;;;6301154;22;20018;-76
2023/12/12 05:59:43;;;;;;;11.10;7.28;;;5.60;99.90;;;;;;6303142;22;20030;-76
2023/12/12 06:02:08;;;;;;;20.58;8.40;;;5.60;99.90;;;;;;6301177;22;20456;-76
2023/12/12 06:04:38;;;;;;;15.07;8.52;;;5.60;99.90;;;;;;6300836;22;20019;-78
2023/12/12 06:07:04;;;;;;;18.25;7.88;;;5.70;99.90;;;;;;6301153;22;20019;-79
2023/12/12 06:09:30;;;;;;;14.25;8.60;;;5.70;99.90;;;;;;6275158;22;20039;-79
2023/12/12 06:11:55;;;;;;;15.15;8.80;;;5.70;99.90;;;;;;6300969;22;20023;-79
2023/12/12 06:14:21;;;;;;;18.95;9.68;;;5.70;99.90;;;;;;6302739;22;20064;-79
2023/12/12 06:16:47;;;;;;;16.88;9.25;;;5.70;99.90;;;;;;6303088;22;20050;-79
2023/12/12 06:19:12;;;;;;;17.67;9.00;;;5.80;99.90;;;;;;6302607;22;20015;-79
2023/12/12 06:21:38;;;;;;;14.50;9.25;;;5.80;99.90;;;;;;6300950;22;20119;-79
2023/12/12 06:24:04;;;;;;;17.10;9.82;;;5.80;99.90;;;;;;6300743;22;20030;-79
2023/12/12 06:26:30;;;;;;;25.75;10.88;;;5.80;99.90;;;;;;6300825;22;20015;-79
2023/12/12 06:28:56;;;;;;;16.60;10.38;;;5.90;99.90;;;;;;6303100;22;20019;-79
2023/12/12 06:31:23;;;;;;;20.27;11.32;;;6.00;99.90;;;;;;6301539;22;20427;-78
2023/12/12 06:33:50;;;;;;;22.50;11.70;;;5.90;99.90;;;;;;6303256;22;20014;-79
2023/12/12 06:36:15;;;;;;;17.55;10.35;;;6.00;99.90;;;;;;6301307;22;20015;-79
2023/12/12 06:38:42;;;;;;;18.60;10.50;;;6.00;99.90;;;;;;6302733;22;20022;-79
2023/12/12 06:41:11;;;;;;;20.65;11.85;;;6.00;99.90;;;;;;6301108;22;20138;-78
2023/12/12 06:43:37;;;;;;;24.00;11.45;;;6.10;99.90;;;;;;6301428;22;20019;-79
2023/12/12 06:46:03;;;;;;;29.40;13.95;;;6.00;99.90;;;;;;6301121;22;20014;-78
2023/12/12 06:48:28;;;;;;;25.58;12.52;;;6.10;99.90;;;;;;6302702;22;20026;-77
2023/12/12 06:50:54;;;;;;;25.85;12.10;;;6.10;99.90;;;;;;6302229;22;20015;-77
2023/12/12 06:53:20;;;;;;;29.08;12.88;;;6.10;99.90;;;;;;6304598;22;20703;-76
2023/12/12 06:55:47;;;;;;;28.52;13.30;;;6.20;99.90;;;;;;6304949;22;20039;-76
2023/12/12 06:58:16;;;;;;;25.60;13.15;;;6.20;99.90;;;;;;6304983;22;20022;-80
2023/12/12 07:00:43;;;;;;;31.67;13.82;;;6.20;99.90;;;;;;6304518;22;20015;-77
2023/12/12 07:03:12;;;;;;;27.85;14.57;;;6.20;99.90;;;;;;6304926;22;20064;-78
2023/12/12 07:05:38;;;;;;;35.90;16.30;;;6.20;99.90;;;;;;6302175;22;20069;-77
2023/12/12 07:08:04;;;;;;;33.88;15.32;;;6.20;99.90;;;;;;6304560;22;20443;-77
2023/12/12 07:10:31;;;;;;;39.55;17.10;;;6.20;99.90;;;;;;6309110;22;20022;-79
2023/12/12 07:12:59;;;;;;;26.95;15.15;;;6.20;99.90;;;;;;6310315;22;20046;-79
2023/12/12 07:15:26;;;;;;;34.92;18.70;;;6.20;99.90;;;;;;6311870;22;20015;-79
2023/12/12 07:17:51;;;;;;;34.00;17.25;;;6.20;99.90;;;;;;6310512;22;20108;-80
2023/12/12 07:20:17;;;;;;;32.53;17.33;;;6.20;99.90;;;;;;6312142;22;20014;-79
2023/12/12 07:22:43;;;;;;;39.28;18.05;;;6.20;99.90;;;;;;6311750;22;20086;-80
2023/12/12 07:25:08;;;;;;;33.17;18.10;;;6.20;99.90;;;;;;6312180;22;20026;-79
2023/12/12 07:27:34;;;;;;;33.67;18.55;;;6.20;99.90;;;;;;6305713;22;20030;-78
2023/12/12 07:30:00;;;;;;;47.05;23.45;;;6.10;99.90;;;;;;6302361;22;20080;-78
2023/12/12 07:32:26;;;;;;;42.40;22.33;;;6.10;99.90;;;;;;6302488;22;20019;-78
2023/12/12 07:34:53;;;;;;;44.90;23.00;;;6.10;99.90;;;;;;6304076;22;20008;-78
2023/12/12 07:37:19;;;;;;;37.92;21.15;;;6.10;99.90;;;;;;6304235;22;20106;-77
2023/12/12 07:39:44;;;;;;;40.65;20.55;;;6.10;99.90;;;;;;6302143;22;20402;-79
2023/12/12 07:42:10;;;;;;;37.38;19.48;;;6.10;99.90;;;;;;6304230;22;20090;-78
2023/12/12 07:44:36;;;;;;;31.85;17.80;;;6.10;99.90;;;;;;6302322;22;20020;-77
2023/12/12 07:47:02;;;;;;;30.25;17.50;;;6.00;99.90;;;;;;6302320;22;20015;-78
2023/12/12 07:49:28;;;;;;;32.72;17.67;;;6.10;99.90;;;;;;6303829;22;20027;-78
2023/12/12 07:51:54;;;;;;;33.35;17.88;;;5.90;99.90;;;;;;6303754;22;20089;-78
2023/12/12 07:54:20;;;;;;;31.88;15.95;;;6.00;99.90;;;;;;6302280;22;20051;-78
2023/12/12 07:56:46;;;;;;;32.63;18.95;;;6.00;99.90;;;;;;6304414;22;20012;-77
2023/12/12 07:59:11;;;;;;;34.08;19.35;;;6.00;99.90;;;;;;6302344;22;20034;-80
2023/12/12 08:01:39;;;;;;;31.20;18.63;;;5.80;99.90;;;;;;6302025;22;20011;-80
2023/12/12 08:04:05;;;;;;;33.33;17.85;;;6.00;99.90;;;;;;6303369;22;20023;-79
2023/12/12 08:06:32;;;;;;;31.90;19.83;;;6.00;99.90;;;;;;6304802;22;20034;-79
2023/12/12 08:08:59;;;;;;;29.38;16.90;;;5.90;99.90;;;;;;6302655;22;20487;-79
2023/12/12 08:11:27;;;;;;;32.63;17.00;;;5.90;99.90;;;;;;6302543;22;20015;-80
2023/12/12 08:13:54;;;;;;;27.33;16.70;;;5.80;99.90;;;;;;6302687;22;20069;-80
2023/12/12 08:16:21;;;;;;;33.10;17.25;;;5.80;99.90;;;;;;6304279;22;20026;-81
2023/12/12 08:18:46;;;;;;;31.42;16.70;;;5.80;99.90;;;;;;6304291;22;20366;-80
2023/12/12 08:21:12;;;;;;;28.05;16.55;;;5.80;99.90;;;;;;6304029;22;20022;-81
2023/12/12 08:23:41;;;;;;;31.13;16.67;;;5.80;99.90;;;;;;6304043;22;20027;-81
2023/12/12 08:26:07;;;;;;;33.17;18.42;;;5.90;99.90;;;;;;6302560;22;20010;-81
2023/12/12 08:28:33;;;;;;;26.80;17.20;;;5.90;99.90;;;;;;6302182;22;20111;-81
2023/12/12 08:30:59;;;;;;;31.73;16.52;;;5.80;99.90;;;;;;6302231;22;20059;-81
2023/12/12 08:33:24;;;;;;;30.58;16.08;;;5.80;99.90;;;;;;6301946;22;20019;-82
2023/12/12 08:35:50;;;;;;;28.17;16.02;;;5.80;99.90;;;;;;6302135;22;20310;-81
2023/12/12 08:38:16;;;;;;;30.40;15.95;;;5.80;99.90;;;;;;6276323;22;20125;-81
2023/12/12 08:40:42;;;;;;;20.10;13.13;;;5.80;99.90;;;;;;6302099;22;20021;-81
2023/12/12 08:43:08;;;;;;;20.75;13.48;;;5.70;99.90;;;;;;6303850;22;20019;-80
2023/12/12 08:45:34;;;;;;;24.92;14.57;;;5.70;99.90;;;;;;6303804;22;20073;-78
2023/12/12 08:47:59;;;;;;;20.88;13.80;;;5.80;99.90;;;;;;6304089;22;20007;-80
2023/12/12 08:50:25;;;;;;;20.08;13.05;;;6.10;99.90;;;;;;6303981;22;20011;-79
2023/12/12 08:52:51;;;;;;;27.50;11.88;;;5.90;99.90;;;;;;6303947;22;20019;-80
2023/12/12 08:55:16;;;;;;;18.25;9.48;;;5.80;99.90;;;;;;6303969;22;20026;-78
2023/12/12 08:57:43;;;;;;;32.55;10.48;;;5.80;99.90;;;;;;6301642;22;20011;-81
2023/12/12 09:00:12;;;;;;;36.05;10.68;;;5.70;99.90;;;;;;6302018;22;20015;-78
2023/12/12 09:02:39;;;;;;;31.90;11.63;;;5.70;99.90;;;;;;6301451;22;20404;-77
2023/12/12 09:05:06;;;;;;;36.28;12.90;;;5.60;99.90;;;;;;6303379;22;20020;-77
2023/12/12 09:07:35;;;;;;;26.25;13.68;;;5.60;99.90;;;;;;6301723;22;20054;-78
2023/12/12 09:10:03;;;;;;;25.10;13.05;;;5.70;99.90;;;;;;6301752;22;20019;-78
2023/12/12 09:12:29;;;;;;;35.17;14.95;;;5.70;99.90;;;;;;6301822;22;20050;-78
2023/12/12 09:14:55;;;;;;;65.63;16.60;;;5.60;99.90;;;;;;6301029;22;20054;-78
2023/12/12 09:17:20;;;;;;;43.88;15.55;;;5.70;99.90;;;;;;6303020;22;20019;-77
2023/12/12 09:19:46;;;;;;;36.20;16.25;;;5.70;99.90;;;;;;6303841;22;20053;-77
2023/12/12 09:22:12;;;;;;;103.60;18.27;;;5.70;99.90;;;;;;6301570;22;20086;-77
2023/12/12 09:24:38;;;;;;;89.20;18.05;;;5.70;99.90;;;;;;6303636;22;20045;-77
2023/12/12 09:27:04;;;;;;;41.58;15.43;;;5.70;99.90;;;;;;6300787;22;20423;-77
2023/12/12 09:29:30;;;;;;;39.67;16.33;;;5.70;99.90;;;;;;6301369;22;20019;-78
2023/12/12 09:31:56;;;;;;;62.50;16.80;;;5.70;99.90;;;;;;6302945;22;20081;-77
2023/12/12 09:34:23;;;;;;;43.35;16.90;;;5.60;99.90;;;;;;6303010;22;20019;-77
2023/12/12 09:36:50;;;;;;;29.10;17.02;;;5.70;99.90;;;;;;6301436;22;20648;-77
2023/12/12 09:39:16;;;;;;;49.67;16.92;;;5.70;99.90;;;;;;6301391;22;20438;-77
2023/12/12 09:41:46;;;;;;;35.30;16.02;;;5.70;99.90;;;;;;6303119;22;20081;-78
2023/12/12 09:44:15;;;;;;;30.98;16.73;;;5.70;99.90;;;;;;6301216;22;20046;-77
2023/12/12 09:46:43;;;;;;;30.45;16.92;;;5.60;99.90;;;;;;6301050;22;20019;-77
2023/12/12 09:49:11;;;;;;;42.35;15.85;;;5.60;99.90;;;;;;6301217;22;20018;-77
2023/12/12 09:51:40;;;;;;;31.15;16.42;;;5.60;99.90;;;;;;6301368;22;20022;-77
2023/12/12 09:54:07;;;;;;;32.10;16.73;;;5.60;99.90;;;;;;6303242;22;20021;-77
2023/12/12 09:56:37;;;;;;;41.03;16.58;;;5.60;99.90;;;;;;6303186;22;20019;-78
2023/12/12 09:59:04;;;;;;;54.53;16.70;;;5.60;99.90;;;;;;6302939;22;20047;-77
2023/12/12 10:01:33;;;;;;;29.00;16.52;;;5.70;99.90;;;;;;6302715;22;20030;-77
2023/12/12 10:04:05;;;;;;;44.72;17.08;;;5.70;99.90;;;;;;6303004;22;20021;-77
2023/12/12 10:06:42;;;;;;;61.80;17.65;;;5.70;99.90;;;;;;6301139;22;20023;-77
2023/12/12 10:09:09;;;;;;;38.03;17.35;;;5.70;99.90;;;;;;6301202;22;20506;-78
2023/12/12 10:11:35;;;;;;;32.63;15.38;;;5.70;99.90;;;;;;6301004;22;20458;-77
2023/12/12 10:14:00;;;;;;;43.42;18.13;;;5.70;99.90;;;;;;6274930;22;20019;-77
2023/12/12 10:16:30;;;;;;;44.42;19.45;;;5.70;99.90;;;;;;6301040;22;20374;-78
2023/12/12 10:18:58;;;;;;;44.22;18.42;;;5.80;99.90;;;;;;6301134;22;20061;-78
2023/12/12 10:21:26;;;;;;;46.08;17.75;;;5.80;99.90;;;;;;6304009;22;20011;-78
2023/12/12 10:23:53;;;;;;;41.58;17.92;;;5.80;99.90;;;;;;6302503;22;20489;-77
2023/12/12 10:26:31;;;;;;;40.88;18.00;;;5.80;99.90;;;;;;6298747;22;20055;-78
2023/12/12 10:28:58;;;;;;;57.63;19.30;;;5.80;99.90;;;;;;6300904;22;20095;-78
2023/12/12 10:31:24;;;;;;;43.92;20.10;;;5.80;99.90;;;;;;6302881;22;20097;-78
2023/12/12 10:33:50;;;;;;;48.17;20.63;;;5.90;99.90;;;;;;6301073;22;20077;-79
2023/12/12 10:36:16;;;;;;;64.07;22.13;;;5.90;99.90;;;;;;6301164;22;20030;-78
2023/12/12 10:38:41;;;;;;;40.80;19.75;;;5.90;99.90;;;;;;6302734;22;20378;-78
2023/12/12 10:41:15;;;;;;;47.75;22.23;;;5.90;99.90;;;;;;6300940;22;20627;-78
2023/12/12 10:43:43;;;;;;;40.88;22.27;;;6.00;99.90;;;;;;6300655;22;20015;-79
2023/12/12 10:46:13;;;;;;;50.30;24.10;;;6.00;99.90;;;;;;6300957;22;20496;-78
2023/12/12 10:48:46;;;;;;;64.78;25.60;;;5.90;99.90;;;;;;6300854;22;20067;-79
2023/12/12 10:51:14;;;;;;;63.47;26.52;;;6.00;99.90;;;;;;6301236;22;20023;-79
2023/12/12 10:53:42;;;;;;;65.25;28.58;;;6.00;99.90;;;;;;6300906;22;20016;-79
2023/12/12 10:56:09;;;;;;;70.30;27.00;;;6.10;99.90;;;;;;6302831;22;20027;-79
2023/12/12 10:58:37;;;;;;;58.28;25.77;;;6.10;99.90;;;;;;6302593;22;20017;-78
2023/12/12 11:01:03;;;;;;;53.15;24.77;;;6.20;99.90;;;;;;6302902;22;20057;-79
2023/12/12 11:03:32;;;;;;;51.65;22.05;;;6.20;99.90;;;;;;6303249;22;20019;-78
2023/12/12 11:05:59;;;;;;;58.78;23.35;;;6.30;99.90;;;;;;6303174;22;20084;-79
2023/12/12 11:08:26;;;;;;;47.08;22.33;;;6.30;99.90;;;;;;6275439;22;20121;-79
2023/12/12 11:10:53;;;;;;;48.92;20.30;;;6.30;99.90;;;;;;6301063;22;20047;-79
2023/12/12 11:13:24;;;;;;;41.78;19.67;;;6.30;99.90;;;;;;6302372;22;20091;-79
2023/12/12 11:15:52;;;;;;;37.80;20.95;;;6.40;99.90;;;;;;6301111;22;20332;-79
2023/12/12 11:18:20;;;;;;;40.00;21.35;;;6.40;99.90;;;;;;6275049;22;20011;-80
2023/12/12 11:20:47;;;;;;;41.88;19.27;;;6.50;99.90;;;;;;6303052;22;20087;-79
2023/12/12 11:23:54;;;;;;;46.38;22.17;;;6.50;99.90;;;;;;6303115;22;20007;-80
2023/12/12 11:26:22;;;;;;;36.80;18.35;;;6.50;99.90;;;;;;6300071;22;20435;-79
2023/12/12 11:28:49;;;;;;;40.20;19.73;;;6.50;99.90;;;;;;6300947;22;20022;-80
2023/12/12 11:31:27;;;;;;;37.83;21.27;;;6.60;99.90;;;;;;6301477;22;20019;-80
2023/12/12 11:34:04;;;;;;;47.35;22.73;;;6.60;99.90;;;;;;6301285;22;20015;-79
2023/12/12 11:36:53;;;;;;;46.42;20.77;;;6.60;99.90;;;;;;6303324;22;20007;-79
2023/12/12 11:39:31;;;;;;;40.58;20.27;;;6.70;99.90;;;;;;6305098;22;20026;-80
2023/12/12 11:42:03;;;;;;;42.90;21.20;;;6.70;99.90;;;;;;6304529;22;20011;-80
2023/12/12 11:44:42;;;;;;;37.90;19.90;;;6.70;99.90;;;;;;6304837;22;20353;-80
2023/12/12 11:47:14;;;;;;;47.25;21.25;;;6.70;99.90;;;;;;6303016;22;20050;-79
2023/12/12 11:49:40;;;;;;;44.78;20.90;;;6.70;99.90;;;;;;6302753;22;20100;-80
2023/12/12 11:52:07;;;;;;;46.13;22.05;;;6.70;99.90;;;;;;6302751;22;20171;-80
2023/12/12 11:54:33;;;;;;;44.03;20.15;;;6.70;99.90;;;;;;6302595;22;20057;-80
2023/12/12 11:57:00;;;;;;;38.88;19.33;;;6.80;99.90;;;;;;6302218;22;20019;-79
2023/12/12 11:59:27;;;;;;;43.83;18.55;;;6.80;99.90;;;;;;6302414;22;20060;-79
2023/12/12 12:01:54;;;;;;;42.75;18.20;;;6.80;99.90;;;;;;6304497;22;20015;-79
2023/12/12 12:04:21;;;;;;;25.85;12.55;;;6.80;99.90;;;;;;6302502;22;20132;-81
2023/12/12 12:06:48;;;;;;;45.92;20.52;;;7.20;99.90;;;;;;6304216;22;20018;-76
2023/12/12 12:09:16;;;;;;;39.65;19.80;;;7.00;99.90;;;;;;6302050;22;20498;-75
2023/12/12 12:11:46;;;;;;;46.10;19.88;;;7.00;99.90;;;;;;6303938;22;20007;-75
2023/12/12 12:14:13;;;;;;;41.90;19.52;;;7.10;99.90;;;;;;6303790;22;20072;-75
2023/12/12 12:16:39;;;;;;;40.38;20.75;;;7.00;99.90;;;;;;6303820;22;20023;-75
2023/12/12 12:19:27;;;;;;;33.03;17.00;;;7.10;99.90;;;;;;6304184;22;20391;-77
2023/12/12 12:21:52;;;;;;;43.65;20.48;;;7.20;99.90;;;;;;6302078;22;20087;-77
2023/12/12 12:24:18;;;;;;;43.00;20.02;;;7.10;99.90;;;;;;6301998;22;20054;-77
2023/12/12 12:26:44;;;;;;;48.00;21.30;;;7.20;99.90;;;;;;6301794;22;20019;-78
2023/12/12 12:29:10;;;;;;;48.00;20.48;;;7.20;99.90;;;;;;6302026;22;20592;-78
2023/12/12 12:31:38;;;;;;;43.53;20.25;;;7.20;99.90;;;;;;6304297;22;20090;-78
2023/12/12 12:34:16;;;;;;;40.92;19.42;;;7.20;99.90;;;;;;6303628;22;20091;-78
2023/12/12 12:36:42;;;;;;;47.35;23.23;;;7.20;99.90;;;;;;6301849;22;20016;-77
2023/12/12 12:39:09;;;;;;;55.20;23.88;;;7.20;99.90;;;;;;6303384;22;20018;-78
2023/12/12 12:41:35;;;;;;;59.55;24.90;;;7.30;99.90;;;;;;6303596;22;20050;-78
2023/12/12 12:44:01;;;;;;;60.83;25.50;;;7.30;99.90;;;;;;6301886;22;20011;-78
2023/12/12 12:46:27;;;;;;;61.03;26.67;;;7.20;99.90;;;;;;6304064;22;20018;-81
2023/12/12 12:48:53;;;;;;;67.68;24.73;;;7.20;99.90;;;;;;6302229;22;20015;-81